Time;durP1;ratioP1;P1;durP2;ratioP2;P2;SDS_P1;SDS_P2;PMS_P1;PMS_P2;Temp;Humidity;BMP_temperature;BMP_pressure;BME280_temperature;BME280_humidity;BME280_pressure;Samples;Min_cycle;Max_cycle;Signal;HPM_P1;HPM_P2
2023/08/15 00:01:21;;;;;;;5.00;3.90;;;24.10;99.90;;;;;;7393823;19;20165;-82
2023/08/15 00:03:46;;;;;;;6.43;3.58;;;24.10;99.90;;;;;;7391450;19;20241;-79
2023/08/15 00:06:13;;;;;;;5.35;3.60;;;24.00;99.90;;;;;;7391298;19;20142;-81
2023/08/15 00:08:39;;;;;;;4.20;3.80;;;23.90;99.90;;;;;;7393313;19;20131;-80
2023/08/15 00:11:05;;;;;;;4.10;3.70;;;23.80;99.90;;;;;;7392309;19;20646;-79
2023/08/15 00:13:31;;;;;;;5.03;3.78;;;23.80;99.90;;;;;;7392810;19;20579;-81
2023/08/15 00:15:56;;;;;;;5.65;4.03;;;24.00;99.90;;;;;;7393230;19;20150;-81
2023/08/15 00:18:22;;;;;;;6.32;4.40;;;24.10;99.90;;;;;;7392439;19;20160;-80
2023/08/15 00:20:48;;;;;;;5.53;3.85;;;24.10;99.90;;;;;;7393868;19;20138;-78
2023/08/15 00:23:14;;;;;;;4.75;4.25;;;24.10;99.90;;;;;;7391233;19;20147;-80
2023/08/15 00:25:42;;;;;;;6.15;4.30;;;24.00;99.90;;;;;;7392340;19;20465;-79
2023/08/15 00:28:08;;;;;;;7.88;4.30;;;24.00;99.90;;;;;;7392775;19;20149;-79
2023/08/15 00:30:34;;;;;;;4.20;3.80;;;24.10;99.90;;;;;;7394726;19;20213;-80
2023/08/15 00:32:59;;;;;;;6.63;3.75;;;24.10;99.90;;;;;;7389733;19;20134;-80
2023/08/15 00:35:25;;;;;;;3.63;3.33;;;24.00;99.90;;;;;;7392275;19;20153;-80
2023/08/15 00:37:51;;;;;;;10.43;3.67;;;24.00;99.90;;;;;;7390241;19;20127;-80
2023/08/15 00:40:17;;;;;;;4.38;3.97;;;24.00;99.90;;;;;;7391440;19;20135;-81
2023/08/15 00:42:42;;;;;;;4.32;3.78;;;24.10;99.90;;;;;;7391153;19;20174;-81
2023/08/15 00:45:09;;;;;;;4.25;3.50;;;24.00;99.90;;;;;;7390002;19;20493;-78
2023/08/15 00:47:35;;;;;;;5.43;3.80;;;23.90;99.90;;;;;;7392675;19;20134;-82
2023/08/15 00:50:02;;;;;;;6.68;4.05;;;24.00;99.90;;;;;;7393481;19;20151;-80
2023/08/15 00:52:28;;;;;;;6.32;4.40;;;24.30;99.90;;;;;;7390312;19;20143;-80
2023/08/15 00:54:54;;;;;;;5.88;4.03;;;24.50;99.90;;;;;;7391083;19;20133;-79
2023/08/15 00:57:21;;;;;;;5.60;4.30;;;24.40;99.90;;;;;;7391675;19;20134;-79
2023/08/15 00:59:47;;;;;;;5.03;3.80;;;24.20;99.90;;;;;;7393172;19;20466;-81
2023/08/15 01:02:13;;;;;;;6.13;3.72;;;24.20;99.90;;;;;;7392810;19;20190;-80
2023/08/15 01:04:40;;;;;;;4.32;3.80;;;24.10;99.90;;;;;;7391464;19;20598;-79
2023/08/15 01:07:06;;;;;;;4.10;3.70;;;24.00;99.90;;;;;;7393083;19;20468;-79
2023/08/15 01:09:32;;;;;;;5.10;4.28;;;24.00;99.90;;;;;;7392602;19;20138;-80
2023/08/15 01:12:25;;;;;;;5.18;4.18;;;23.80;99.90;;;;;;7389874;19;20130;-80
2023/08/15 01:15:13;;;;;;;5.10;3.60;;;23.70;99.90;;;;;;7391986;19;20130;-77
2023/08/15 01:18:04;;;;;;;4.78;3.90;;;23.80;99.90;;;;;;7392440;19;20134;-79
2023/08/15 01:20:35;;;;;;;5.95;3.92;;;23.80;99.90;;;;;;7390440;19;20458;-79
2023/08/15 01:23:05;;;;;;;5.53;4.00;;;23.80;99.90;;;;;;7389816;19;20599;-79
2023/08/15 01:25:32;;;;;;;4.80;4.30;;;23.60;99.90;;;;;;7389801;19;20153;-79
2023/08/15 01:27:59;;;;;;;5.18;4.03;;;23.80;99.90;;;;;;7392331;19;20519;-78
2023/08/15 01:30:25;;;;;;;8.93;4.40;;;23.80;99.90;;;;;;7391847;19;20134;-80
2023/08/15 01:33:15;;;;;;;5.55;4.03;;;23.70;99.90;;;;;;7389458;19;20142;-80
2023/08/15 01:35:46;;;;;;;5.28;4.38;;;23.80;99.90;;;;;;7390707;19;20142;-80
2023/08/15 01:38:37;;;;;;;5.55;4.35;;;24.00;99.90;;;;;;7387815;19;20146;-80
2023/08/15 01:41:05;;;;;;;5.18;4.07;;;24.00;99.90;;;;;;7390655;19;20460;-79
2023/08/15 01:43:32;;;;;;;5.55;3.92;;;23.80;99.90;;;;;;7390228;19;20529;-78
2023/08/15 01:45:59;;;;;;;4.50;3.72;;;23.50;99.90;;;;;;7389823;19;20135;-79
2023/08/15 01:48:25;;;;;;;4.20;3.80;;;23.60;99.90;;;;;;7390784;19;20210;-79
2023/08/15 01:50:50;;;;;;;6.18;4.53;;;23.70;99.90;;;;;;7389800;19;20135;-79
2023/08/15 01:53:16;;;;;;;4.38;3.90;;;23.60;99.90;;;;;;7389620;19;20136;-79
2023/08/15 01:55:42;;;;;;;4.63;3.95;;;23.40;99.90;;;;;;7389041;19;20119;-80
2023/08/15 01:58:07;;;;;;;4.88;3.72;;;23.40;99.90;;;;;;7387724;19;20138;-78
2023/08/15 02:00:34;;;;;;;6.07;4.40;;;23.60;99.90;;;;;;7387669;19;20508;-79
2023/08/15 02:02:59;;;;;;;5.78;3.88;;;23.60;99.90;;;;;;7390170;19;20138;-78
2023/08/15 02:05:25;;;;;;;5.95;4.13;;;23.80;99.90;;;;;;7389432;19;20139;-78
2023/08/15 02:07:51;;;;;;;4.75;3.90;;;23.80;99.90;;;;;;7390381;19;20668;-79
2023/08/15 02:10:17;;;;;;;4.18;3.72;;;23.60;99.90;;;;;;7387933;19;20624;-78
2023/08/15 02:12:42;;;;;;;4.93;3.90;;;23.50;99.90;;;;;;7390434;19;20227;-80
2023/08/15 02:15:08;;;;;;;4.03;3.50;;;23.40;99.90;;;;;;7388723;19;20463;-79
2023/08/15 02:17:34;;;;;;;5.35;3.83;;;23.40;99.90;;;;;;7392550;19;20135;-79
2023/08/15 02:20:01;;;;;;;4.70;3.92;;;23.50;99.90;;;;;;7389512;19;20142;-78
2023/08/15 02:22:27;;;;;;;5.18;3.75;;;23.50;99.90;;;;;;7391972;19;20198;-78
2023/08/15 02:24:53;;;;;;;3.47;3.17;;;23.60;99.90;;;;;;7388939;19;20147;-79
2023/08/15 02:27:18;;;;;;;4.85;3.95;;;23.50;99.90;;;;;;7392476;19;20139;-78
2023/08/15 02:29:44;;;;;;;4.47;3.58;;;23.30;99.90;;;;;;7387733;19;20134;-79
2023/08/15 02:32:10;;;;;;;4.60;3.70;;;23.20;99.90;;;;;;7384371;19;20140;-78
2023/08/15 02:34:36;;;;;;;4.93;3.88;;;23.20;99.90;;;;;;7383704;19;20139;-78
2023/08/15 02:37:02;;;;;;;5.03;4.25;;;23.30;99.90;;;;;;7388009;19;20157;-78
2023/08/15 02:39:28;;;;;;;4.35;3.47;;;23.30;99.90;;;;;;7388027;19;20591;-79
2023/08/15 02:41:53;;;;;;;5.65;3.90;;;23.40;99.90;;;;;;7386978;19;20145;-78
2023/08/15 02:44:19;;;;;;;4.60;3.50;;;23.40;99.90;;;;;;7389006;19;20499;-77
2023/08/15 02:46:45;;;;;;;4.00;3.60;;;23.30;99.90;;;;;;7383295;19;20163;-79
2023/08/15 02:49:11;;;;;;;4.10;3.80;;;23.20;99.90;;;;;;7391132;19;20165;-79
2023/08/15 02:51:37;;;;;;;6.10;4.10;;;23.40;99.90;;;;;;7396525;19;20241;-78
2023/08/15 02:54:03;;;;;;;5.00;3.95;;;23.60;99.90;;;;;;7392892;19;20177;-79
2023/08/15 02:56:29;;;;;;;5.13;3.65;;;23.40;99.90;;;;;;7391057;19;20151;-80
2023/08/15 02:58:54;;;;;;;3.90;3.50;;;23.40;99.90;;;;;;7394106;19;20140;-81
2023/08/15 03:01:20;;;;;;;4.18;3.58;;;23.40;99.90;;;;;;7392684;19;20150;-77
2023/08/15 03:03:46;;;;;;;4.32;3.92;;;23.60;99.90;;;;;;7393085;19;20168;-77
2023/08/15 03:06:13;;;;;;;4.22;3.42;;;23.40;99.90;;;;;;7393584;19;20454;-80
2023/08/15 03:08:41;;;;;;;6.18;3.70;;;23.20;99.90;;;;;;7392105;19;20155;-80
2023/08/15 03:11:07;;;;;;;4.72;3.92;;;23.10;99.90;;;;;;7392246;19;20160;-80
2023/08/15 03:13:33;;;;;;;6.88;3.80;;;23.10;99.90;;;;;;7393968;19;20142;-80
2023/08/15 03:15:58;;;;;;;4.07;3.60;;;23.30;99.90;;;;;;7392831;19;20152;-80
2023/08/15 03:18:24;;;;;;;5.70;4.13;;;23.40;99.90;;;;;;7393108;19;20143;-80
2023/08/15 03:21:03;;;;;;;5.60;3.83;;;23.60;99.90;;;;;;7394191;19;20134;-79
2023/08/15 03:23:29;;;;;;;4.07;3.67;;;23.40;99.90;;;;;;7393116;19;20146;-80
2023/08/15 03:25:59;;;;;;;4.65;3.92;;;23.50;99.90;;;;;;7391667;19;20198;-80
2023/08/15 03:28:25;;;;;;;4.70;4.20;;;23.50;99.90;;;;;;7392686;19;20157;-80
2023/08/15 03:30:51;;;;;;;4.78;4.10;;;23.40;99.90;;;;;;7394223;19;20144;-80
2023/08/15 03:33:17;;;;;;;6.22;3.88;;;23.20;99.90;;;;;;7393588;19;20135;-79
2023/08/15 03:35:48;;;;;;;5.13;4.40;;;23.30;99.90;;;;;;7392398;19;20135;-79
2023/08/15 03:38:20;;;;;;;4.95;3.97;;;23.30;99.90;;;;;;7395960;19;20185;-79
2023/08/15 03:40:49;;;;;;;4.70;3.80;;;23.40;99.90;;;;;;7392132;19;20131;-79
2023/08/15 03:43:15;;;;;;;6.00;4.13;;;23.20;99.90;;;;;;7395586;19;20130;-80
2023/08/15 03:45:41;;;;;;;4.45;3.90;;;23.10;99.90;;;;;;7392012;19;20154;-79
2023/08/15 03:48:08;;;;;;;4.45;3.58;;;23.10;99.90;;;;;;7393035;19;20547;-79
2023/08/15 03:50:38;;;;;;;5.60;4.00;;;23.00;99.90;;;;;;7394961;19;20156;-79
2023/08/15 03:53:04;;;;;;;4.18;3.72;;;22.90;99.90;;;;;;7392406;19;20123;-80
2023/08/15 03:55:30;;;;;;;4.45;3.90;;;23.00;99.90;;;;;;7393505;19;20135;-79
2023/08/15 03:57:57;;;;;;;5.60;3.85;;;22.90;99.90;;;;;;7391613;19;20138;-78
2023/08/15 04:00:23;;;;;;;3.97;3.67;;;22.90;99.90;;;;;;7390845;19;20151;-80
2023/08/15 04:02:49;;;;;;;6.38;4.00;;;23.00;99.90;;;;;;7392075;19;20233;-80
2023/08/15 04:05:16;;;;;;;4.85;3.83;;;23.20;99.90;;;;;;7390154;19;20174;-80
2023/08/15 04:07:42;;;;;;;35.42;11.15;;;22.90;99.90;;;;;;7393688;19;20173;-79
2023/08/15 04:10:08;;;;;;;12.98;5.45;;;22.70;99.90;;;;;;7393279;19;20540;-80
2023/08/15 04:12:34;;;;;;;6.28;4.30;;;22.80;99.90;;;;;;7394938;19;20134;-78
2023/08/15 04:15:00;;;;;;;5.50;4.10;;;23.00;99.90;;;;;;7394809;19;20165;-78
2023/08/15 04:17:26;;;;;;;5.35;4.05;;;22.80;99.90;;;;;;7394833;19;20131;-79
2023/08/15 04:19:52;;;;;;;5.38;3.85;;;22.80;99.90;;;;;;7395359;19;20639;-78
2023/08/15 04:22:18;;;;;;;5.13;3.75;;;23.00;99.90;;;;;;7391283;19;20138;-78
2023/08/15 04:24:44;;;;;;;8.23;5.28;;;23.20;99.90;;;;;;7392532;19;20158;-80
2023/08/15 04:27:10;;;;;;;5.28;4.63;;;23.30;99.90;;;;;;7391296;19;20647;-79
2023/08/15 04:29:36;;;;;;;5.60;4.95;;;23.40;99.90;;;;;;7393162;19;20166;-80
2023/08/15 04:32:02;;;;;;;5.05;4.50;;;23.30;99.90;;;;;;7392465;19;20139;-79
2023/08/15 04:34:28;;;;;;;5.10;4.60;;;23.40;99.90;;;;;;7393186;19;20225;-80
2023/08/15 04:36:53;;;;;;;5.20;4.70;;;23.40;99.90;;;;;;7392553;19;20162;-78
2023/08/15 04:39:19;;;;;;;7.10;5.35;;;23.40;99.90;;;;;;7392131;19;20603;-80
2023/08/15 04:41:45;;;;;;;5.93;4.88;;;23.40;99.90;;;;;;7391596;19;20152;-79
2023/08/15 04:44:10;;;;;;;5.28;4.78;;;23.40;99.90;;;;;;7392095;19;20501;-81
2023/08/15 04:46:36;;;;;;;8.55;4.90;;;23.00;99.90;;;;;;7389488;19;20147;-79
2023/08/15 04:49:02;;;;;;;6.15;4.95;;;23.20;99.90;;;;;;7392883;19;20568;-80
2023/08/15 04:51:28;;;;;;;5.78;5.18;;;23.30;99.90;;;;;;7391043;19;20146;-78
2023/08/15 04:53:54;;;;;;;6.05;4.93;;;23.30;99.90;;;;;;7390472;19;20206;-79
2023/08/15 04:56:21;;;;;;;6.25;5.03;;;23.30;99.90;;;;;;7392361;19;20138;-80
2023/08/15 04:58:47;;;;;;;6.88;4.95;;;23.30;99.90;;;;;;7391964;19;20138;-79
2023/08/15 05:01:13;;;;;;;6.75;4.70;;;23.20;99.90;;;;;;7393076;19;20146;-79
2023/08/15 05:03:39;;;;;;;5.95;4.45;;;23.00;99.90;;;;;;7389853;19;20146;-81
2023/08/15 05:06:05;;;;;;;5.53;4.40;;;23.10;99.90;;;;;;7391938;19;20555;-80
2023/08/15 05:08:31;;;;;;;6.88;4.97;;;23.20;99.90;;;;;;7390788;19;20138;-79
2023/08/15 05:10:56;;;;;;;7.25;5.00;;;23.20;99.90;;;;;;7390066;19;20138;-78
2023/08/15 05:13:22;;;;;;;6.95;4.78;;;23.30;99.90;;;;;;7391374;19;20566;-79
2023/08/15 05:15:48;;;;;;;5.97;4.65;;;23.40;99.90;;;;;;7390704;19;20587;-83
2023/08/15 05:18:17;;;;;;;6.40;5.00;;;23.50;99.90;;;;;;7391231;19;20153;-80
2023/08/15 05:20:46;;;;;;;6.15;4.82;;;23.50;99.90;;;;;;7391674;19;20245;-77
2023/08/15 05:23:11;;;;;;;5.50;4.88;;;23.60;99.90;;;;;;7390683;19;20150;-80
2023/08/15 05:25:37;;;;;;;7.18;5.60;;;23.70;99.90;;;;;;7387211;19;20134;-80
2023/08/15 05:28:04;;;;;;;8.85;6.13;;;23.80;99.90;;;;;;7391921;19;20134;-78
2023/08/15 05:30:31;;;;;;;9.25;4.97;;;23.90;99.90;;;;;;7390979;19;20198;-77
2023/08/15 05:33:01;;;;;;;7.60;5.13;;;23.90;99.90;;;;;;7387686;19;20154;-79
2023/08/15 05:35:27;;;;;;;6.47;5.25;;;23.70;99.90;;;;;;7390566;19;20762;-79
2023/08/15 05:37:53;;;;;;;7.30;4.93;;;23.60;99.90;;;;;;7389942;19;20138;-78
2023/08/15 05:40:23;;;;;;;5.82;4.90;;;23.70;99.90;;;;;;7388542;19;20268;-79
2023/08/15 05:42:48;;;;;;;6.18;4.53;;;23.70;99.90;;;;;;7393645;19;20820;-80
2023/08/15 05:45:14;;;;;;;5.30;4.47;;;23.80;99.90;;;;;;7388614;19;20134;-81
2023/08/15 05:47:40;;;;;;;5.90;4.75;;;23.80;99.90;;;;;;7392814;19;20131;-81
2023/08/15 05:50:06;;;;;;;5.07;4.28;;;23.90;99.90;;;;;;7389454;19;20191;-80
2023/08/15 05:52:33;;;;;;;4.40;3.97;;;24.00;99.90;;;;;;7389243;19;20134;-76
2023/08/15 05:54:58;;;;;;;4.95;4.00;;;24.00;99.90;;;;;;7394724;19;20199;-83
2023/08/15 05:57:24;;;;;;;5.40;4.15;;;24.10;99.90;;;;;;7391604;19;20147;-82
2023/08/15 05:59:50;;;;;;;5.82;4.10;;;24.20;99.90;;;;;;7393093;19;20134;-81
2023/08/15 06:02:17;;;;;;;4.88;3.83;;;24.20;99.90;;;;;;7391582;19;20158;-86
2023/08/15 06:04:42;;;;;;;5.40;4.32;;;24.20;99.90;;;;;;7393969;19;20146;-85
2023/08/15 06:07:08;;;;;;;6.57;4.38;;;24.30;99.90;;;;;;7394820;19;20202;-81
2023/08/15 06:09:34;;;;;;;8.68;4.80;;;24.30;99.90;;;;;;7406005;19;20163;-82
2023/08/15 06:12:00;;;;;;;7.53;6.13;;;24.30;99.90;;;;;;7397229;19;20595;-83
2023/08/15 06:14:26;;;;;;;6.85;5.97;;;24.30;99.90;;;;;;7404527;19;20149;-82
2023/08/15 06:16:52;;;;;;;6.55;5.82;;;24.40;99.90;;;;;;7409290;19;20130;-83
2023/08/15 06:19:18;;;;;;;8.05;5.82;;;24.50;99.90;;;;;;7403266;19;20165;-82
2023/08/15 06:21:44;;;;;;;7.10;6.40;;;24.60;99.90;;;;;;7397916;19;20629;-83
2023/08/15 06:24:11;;;;;;;9.25;7.10;;;24.60;99.90;;;;;;7396169;19;20135;-80
2023/08/15 06:26:37;;;;;;;6.72;5.57;;;24.70;99.90;;;;;;7396687;19;20134;-83
2023/08/15 06:29:06;;;;;;;6.32;5.00;;;24.70;99.90;;;;;;7402814;19;20146;-81
2023/08/15 06:31:33;;;;;;;6.90;5.25;;;24.70;99.90;;;;;;7402445;19;20562;-83
2023/08/15 06:34:00;;;;;;;9.40;5.97;;;24.70;99.90;;;;;;7407325;19;20166;-84
2023/08/15 06:36:27;;;;;;;6.90;4.80;;;24.80;99.90;;;;;;7396764;19;20613;-83
2023/08/15 06:38:54;;;;;;;8.38;5.20;;;25.00;99.90;;;;;;7398146;19;20131;-84
2023/08/15 06:41:20;;;;;;;7.25;4.50;;;25.40;99.90;;;;;;7400578;19;20135;-82
2023/08/15 06:43:46;;;;;;;5.32;4.70;;;26.00;99.90;;;;;;7398084;19;20237;-83
2023/08/15 06:46:12;;;;;;;5.47;4.97;;;26.80;99.90;;;;;;7383523;19;20157;-83
2023/08/15 06:48:46;;;;;;;7.93;5.13;;;27.40;99.90;;;;;;7385956;19;20131;-84
2023/08/15 06:51:12;;;;;;;5.82;4.55;;;27.20;99.90;;;;;;7391132;19;20137;-82
2023/08/15 06:53:41;;;;;;;5.78;4.80;;;27.40;99.90;;;;;;7380851;19;20476;-81
2023/08/15 06:56:07;;;;;;;6.07;5.05;;;27.50;99.90;;;;;;7388201;19;20214;-83
2023/08/15 06:58:34;;;;;;;8.73;5.32;;;28.00;99.90;;;;;;7390103;19;20157;-84
2023/08/15 07:01:00;;;;;;;9.02;5.70;;;28.60;99.90;;;;;;7392043;19;20153;-82
2023/08/15 07:03:26;;;;;;;15.82;12.13;;;29.20;99.90;;;;;;7389906;19;20170;-81
2023/08/15 07:05:52;;;;;;;6.07;5.47;;;29.70;99.90;;;;;;7386853;19;20163;-82
2023/08/15 07:08:18;;;;;;;6.70;4.70;;;30.10;99.90;;;;;;7390494;19;20131;-77
2023/08/15 07:10:46;;;;;;;7.88;4.13;;;30.40;99.90;;;;;;7388668;19;20138;-77
2023/08/15 07:13:12;;;;;;;6.35;4.60;;;30.20;99.90;;;;;;7387119;19;20470;-77
2023/08/15 07:15:38;;;;;;;7.57;4.28;;;30.40;99.90;;;;;;7389446;19;20146;-77
2023/08/15 07:18:04;;;;;;;9.70;7.22;;;29.70;99.90;;;;;;7388716;19;20768;-76
2023/08/15 07:20:33;;;;;;;9.98;8.23;;;29.10;99.90;;;;;;7389060;19;20150;-77
2023/08/15 07:22:59;;;;;;;7.93;5.40;;;29.20;99.90;;;;;;7389740;19;20572;-76
2023/08/15 07:25:25;;;;;;;8.80;6.65;;;29.50;99.90;;;;;;7388043;19;20206;-75
2023/08/15 07:27:51;;;;;;;10.68;9.38;;;29.60;99.90;;;;;;7389125;19;20135;-75
2023/08/15 07:30:16;;;;;;;8.10;5.57;;;29.90;99.90;;;;;;7386091;19;20206;-75
2023/08/15 07:32:42;;;;;;;8.98;5.35;;;30.00;99.90;;;;;;7385081;19;20153;-75
2023/08/15 07:35:08;;;;;;;6.68;4.13;;;30.20;99.90;;;;;;7387662;19;20142;-74
2023/08/15 07:37:34;;;;;;;5.78;3.75;;;30.30;99.90;;;;;;7393130;19;20141;-76
2023/08/15 07:40:09;;;;;;;6.03;4.43;;;31.00;99.90;;;;;;7394183;19;20222;-74
2023/08/15 07:42:35;;;;;;;6.18;4.75;;;31.70;99.90;;;;;;7395642;19;20161;-74
2023/08/15 07:45:02;;;;;;;8.57;4.20;;;31.60;99.90;;;;;;7391362;19;20127;-74
2023/08/15 07:47:28;;;;;;;5.07;4.10;;;31.30;99.90;;;;;;7395222;19;20501;-74
2023/08/15 07:50:22;;;;;;;5.95;4.60;;;31.40;99.90;;;;;;7391732;19;20150;-75
2023/08/15 07:52:48;;;;;;;5.55;4.13;;;31.00;99.90;;;;;;7391774;19;20163;-73
2023/08/15 07:55:14;;;;;;;5.90;3.97;;;30.80;99.90;;;;;;7394358;19;20138;-74
2023/08/15 07:57:40;;;;;;;5.10;4.10;;;31.00;99.90;;;;;;7387294;19;20148;-74
2023/08/15 08:00:08;;;;;;;6.15;4.18;;;30.50;99.90;;;;;;7392672;19;20130;-74
2023/08/15 08:02:33;;;;;;;4.63;4.03;;;29.90;99.90;;;;;;7392968;19;20149;-76
2023/08/15 08:04:59;;;;;;;4.63;3.47;;;29.50;99.90;;;;;;7389470;19;20173;-75
2023/08/15 08:07:26;;;;;;;4.55;3.25;;;29.20;99.90;;;;;;7395646;19;20134;-75
2023/08/15 08:09:51;;;;;;;5.68;3.38;;;28.80;99.90;;;;;;7394461;19;20142;-74
2023/08/15 08:12:17;;;;;;;5.85;3.83;;;28.70;99.90;;;;;;7388154;19;20441;-74
2023/08/15 08:14:43;;;;;;;5.82;4.00;;;28.80;99.90;;;;;;7395318;19;20574;-74
2023/08/15 08:17:08;;;;;;;8.18;4.30;;;28.80;99.90;;;;;;7392397;19;20131;-75
2023/08/15 08:19:34;;;;;;;6.10;3.78;;;28.60;99.90;;;;;;7393586;19;20174;-74
2023/08/15 08:22:00;;;;;;;6.97;4.03;;;28.20;99.90;;;;;;7391397;19;20139;-75
2023/08/15 08:24:25;;;;;;;4.82;3.40;;;28.10;99.90;;;;;;7394090;19;20134;-76
2023/08/15 08:26:51;;;;;;;8.90;3.85;;;28.20;99.90;;;;;;7388946;19;20138;-73
2023/08/15 08:29:17;;;;;;;11.75;3.63;;;28.40;99.90;;;;;;7391505;19;20150;-74
2023/08/15 08:31:42;;;;;;;9.95;8.05;;;28.80;99.90;;;;;;7391470;19;20131;-76
2023/08/15 08:34:15;;;;;;;9.95;7.80;;;29.00;99.90;;;;;;7391961;19;20166;-74
2023/08/15 08:36:41;;;;;;;15.27;9.45;;;28.90;99.90;;;;;;7393688;19;20142;-75
2023/08/15 08:39:07;;;;;;;8.70;4.40;;;28.70;99.90;;;;;;7391291;19;20154;-75
2023/08/15 08:41:36;;;;;;;5.88;3.45;;;28.40;99.90;;;;;;7391160;19;20142;-75
2023/08/15 08:44:03;;;;;;;5.90;3.97;;;28.30;99.90;;;;;;7393654;19;20481;-75
2023/08/15 08:46:29;;;;;;;6.22;4.68;;;28.30;99.90;;;;;;7388332;19;20122;-75
2023/08/15 08:48:59;;;;;;;5.57;3.42;;;28.50;99.90;;;;;;7390808;19;20154;-76
2023/08/15 08:51:25;;;;;;;6.95;4.10;;;28.80;99.90;;;;;;7390730;19;20161;-74
2023/08/15 08:53:52;;;;;;;6.65;4.68;;;29.20;99.90;;;;;;7392807;19;20174;-77
2023/08/15 08:56:18;;;;;;;6.20;4.18;;;29.40;99.90;;;;;;7390421;19;20146;-75
2023/08/15 08:58:51;;;;;;;7.22;4.38;;;29.50;99.90;;;;;;7391176;19;20646;-76
2023/08/15 09:01:18;;;;;;;6.00;3.75;;;29.30;99.90;;;;;;7390312;19;20134;-76
2023/08/15 09:03:44;;;;;;;8.85;4.53;;;29.00;99.90;;;;;;7386413;19;20153;-76
2023/08/15 09:06:11;;;;;;;8.10;6.18;;;28.80;99.90;;;;;;7389662;19;20134;-76
2023/08/15 09:08:36;;;;;;;8.30;5.00;;;28.50;99.90;;;;;;7393113;19;20157;-76
2023/08/15 09:11:02;;;;;;;10.73;9.27;;;28.30;99.90;;;;;;7388926;19;20126;-75
2023/08/15 09:13:28;;;;;;;13.20;7.00;;;28.20;99.90;;;;;;7391549;19;20123;-76
2023/08/15 09:15:58;;;;;;;10.52;6.38;;;28.20;99.90;;;;;;7388016;19;20613;-76
2023/08/15 09:18:26;;;;;;;7.15;4.32;;;28.30;99.90;;;;;;7391196;19;20139;-77
2023/08/15 09:20:53;;;;;;;6.78;4.78;;;28.40;99.90;;;;;;7388491;19;20150;-76
2023/08/15 09:23:18;;;;;;;6.75;4.97;;;28.60;99.90;;;;;;7389761;19;20157;-76
2023/08/15 09:25:44;;;;;;;7.35;4.03;;;28.60;99.90;;;;;;7390595;19;20134;-74
2023/08/15 09:28:10;;;;;;;10.55;4.68;;;28.90;99.90;;;;;;7390388;19;20459;-74
2023/08/15 09:30:36;;;;;;;5.45;3.75;;;29.20;99.90;;;;;;7391223;19;20234;-75
2023/08/15 09:33:05;;;;;;;4.63;3.60;;;29.40;99.90;;;;;;7390164;19;20155;-75
2023/08/15 09:35:32;;;;;;;5.45;3.53;;;29.50;99.90;;;;;;7390558;19;20167;-75
2023/08/15 09:38:05;;;;;;;8.43;3.58;;;29.60;99.90;;;;;;7389178;19;20252;-76
2023/08/15 09:40:31;;;;;;;5.95;2.72;;;29.60;99.90;;;;;;7386810;19;20168;-76
2023/08/15 09:42:57;;;;;;;5.68;2.53;;;29.40;99.90;;;;;;7391564;19;20138;-76
2023/08/15 09:45:23;;;;;;;4.20;1.95;;;29.30;99.90;;;;;;7388266;19;20146;-75
2023/08/15 09:47:49;;;;;;;3.67;2.25;;;29.10;99.90;;;;;;7391308;19;20135;-76
2023/08/15 09:50:15;;;;;;;6.22;2.03;;;29.10;99.90;;;;;;7389731;19;20878;-75
2023/08/15 09:52:43;;;;;;;3.80;2.17;;;29.10;99.90;;;;;;7388389;19;20202;-76
2023/08/15 09:55:14;;;;;;;4.30;2.08;;;29.00;99.90;;;;;;7392212;19;20138;-75
2023/08/15 09:57:41;;;;;;;7.53;2.15;;;29.00;99.90;;;;;;7386533;19;20533;-75
2023/08/15 10:00:11;;;;;;;5.03;1.80;;;29.00;99.90;;;;;;7392125;19;20138;-76
2023/08/15 10:02:55;;;;;;;3.47;2.10;;;29.20;99.90;;;;;;7388432;19;20156;-76
2023/08/15 10:05:23;;;;;;;4.15;1.65;;;29.20;99.90;;;;;;7388727;19;20143;-76
2023/08/15 10:07:50;;;;;;;3.28;2.00;;;29.20;99.90;;;;;;7390949;19;20560;-75
2023/08/15 10:10:16;;;;;;;6.18;2.80;;;29.20;99.90;;;;;;7389484;19;20140;-75
2023/08/15 10:12:45;;;;;;;4.05;2.40;;;29.20;99.90;;;;;;7389234;19;20148;-75
2023/08/15 10:15:11;;;;;;;4.95;2.00;;;29.10;99.90;;;;;;7390162;19;20135;-74
2023/08/15 10:17:38;;;;;;;3.83;2.83;;;29.20;99.90;;;;;;7388969;19;20642;-76
2023/08/15 10:20:10;;;;;;;6.53;4.50;;;29.10;99.90;;;;;;7386194;19;20611;-76
2023/08/15 10:22:39;;;;;;;6.70;2.58;;;29.10;99.90;;;;;;7386555;19;20157;-76
2023/08/15 10:25:27;;;;;;;5.40;2.83;;;29.10;99.90;;;;;;7385922;19;20138;-76
2023/08/15 10:27:55;;;;;;;6.88;2.50;;;29.10;99.90;;;;;;7389107;19;20155;-76
2023/08/15 10:30:42;;;;;;;6.38;3.45;;;29.00;99.90;;;;;;7385293;19;20134;-75
2023/08/15 10:33:20;;;;;;;6.80;2.90;;;28.90;99.90;;;;;;7388057;19;20474;-76
2023/08/15 10:35:55;;;;;;;6.45;2.35;;;28.90;99.90;;;;;;7388563;19;20213;-76
2023/08/15 10:38:39;;;;;;;5.90;3.10;;;28.90;99.90;;;;;;7389533;19;20141;-76
2023/08/15 10:41:13;;;;;;;6.15;2.88;;;28.90;99.90;;;;;;7390230;19;20130;-76
2023/08/15 10:43:49;;;;;;;4.28;2.50;;;28.90;99.90;;;;;;7390725;19;20491;-76
2023/08/15 10:46:26;;;;;;;4.40;2.45;;;28.80;99.90;;;;;;7384128;19;20141;-77
2023/08/15 10:48:54;;;;;;;5.90;2.83;;;28.90;99.90;;;;;;7386988;19;20126;-77
2023/08/15 10:51:25;;;;;;;2.75;2.05;;;28.80;99.90;;;;;;7388683;19;20143;-76
2023/08/15 10:53:53;;;;;;;3.55;2.17;;;28.90;99.90;;;;;;7388625;19;20138;-76
2023/08/15 10:56:33;;;;;;;4.72;2.20;;;28.90;99.90;;;;;;7387389;19;20648;-76
2023/08/15 10:59:00;;;;;;;6.53;3.22;;;29.20;99.90;;;;;;7388033;19;20134;-77
2023/08/15 11:01:28;;;;;;;6.85;2.50;;;29.60;99.90;;;;;;7387860;19;20134;-76
2023/08/15 11:03:55;;;;;;;2.22;1.77;;;29.80;99.90;;;;;;7387416;19;20143;-76
2023/08/15 11:06:22;;;;;;;6.07;2.67;;;29.80;99.90;;;;;;7385259;19;20153;-75
2023/08/15 11:08:50;;;;;;;5.10;1.98;;;29.80;99.90;;;;;;7390636;19;20145;-76
2023/08/15 11:11:17;;;;;;;2.15;1.60;;;29.90;99.90;;;;;;7392528;19;20194;-76
2023/08/15 11:13:45;;;;;;;5.20;2.53;;;29.90;99.60;;;;;;7392452;19;20142;-76
2023/08/15 11:16:14;;;;;;;5.25;3.22;;;29.80;99.90;;;;;;7392083;19;20142;-77
2023/08/15 11:18:41;;;;;;;4.32;2.45;;;29.60;99.90;;;;;;7393979;19;20173;-76
2023/08/15 11:21:09;;;;;;;6.20;1.88;;;29.60;99.90;;;;;;7393741;19;20142;-78
2023/08/15 11:23:36;;;;;;;4.15;2.20;;;29.50;99.90;;;;;;7394827;19;20157;-77
2023/08/15 11:26:09;;;;;;;3.22;2.08;;;29.40;99.90;;;;;;7389824;19;20158;-76
2023/08/15 11:28:37;;;;;;;4.63;1.80;;;29.30;99.90;;;;;;7392179;19;20155;-77
2023/08/15 11:31:09;;;;;;;3.78;2.05;;;29.30;99.90;;;;;;7395593;19;20153;-76
2023/08/15 11:33:35;;;;;;;3.55;1.80;;;29.40;99.90;;;;;;7393560;19;20143;-76
2023/08/15 11:36:06;;;;;;;4.22;2.35;;;29.40;99.90;;;;;;7394572;19;20545;-76
2023/08/15 11:38:33;;;;;;;3.15;2.00;;;29.70;99.90;;;;;;7391615;19;20135;-75
2023/08/15 11:41:01;;;;;;;2.80;1.92;;;29.90;99.90;;;;;;7391094;19;20238;-75
2023/08/15 11:43:29;;;;;;;3.17;1.92;;;30.10;99.90;;;;;;7392029;19;20155;-77
2023/08/15 11:45:56;;;;;;;4.60;2.00;;;30.20;99.90;;;;;;7390011;19;20280;-77
2023/08/15 11:48:22;;;;;;;3.20;1.80;;;30.10;99.90;;;;;;7391555;19;20158;-76
2023/08/15 11:50:50;;;;;;;3.90;2.65;;;30.20;99.90;;;;;;7393259;19;20147;-76
2023/08/15 11:53:17;;;;;;;4.90;3.63;;;30.00;99.90;;;;;;7393099;19;20921;-76
2023/08/15 11:55:45;;;;;;;9.00;6.55;;;29.90;99.90;;;;;;7391038;19;20159;-76
2023/08/15 11:58:28;;;;;;;7.03;2.35;;;29.90;99.90;;;;;;7393578;19;20142;-76
2023/08/15 12:01:05;;;;;;;4.90;2.95;;;29.80;99.90;;;;;;7392704;19;20150;-75
2023/08/15 12:03:31;;;;;;;5.38;2.45;;;29.60;99.90;;;;;;7394285;19;20173;-77
2023/08/15 12:05:59;;;;;;;3.67;2.35;;;29.70;99.90;;;;;;7392975;19;20130;-75
2023/08/15 12:08:29;;;;;;;3.42;2.58;;;29.80;99.90;;;;;;7391246;19;20250;-76
2023/08/15 12:11:10;;;;;;;5.03;2.13;;;29.90;99.90;;;;;;7394064;19;20141;-79
2023/08/15 12:13:41;;;;;;;5.43;2.55;;;30.00;99.90;;;;;;7393487;19;20151;-77
2023/08/15 12:16:08;;;;;;;3.97;2.55;;;30.10;99.90;;;;;;7392207;19;20138;-75
2023/08/15 12:18:34;;;;;;;7.25;2.88;;;30.20;99.90;;;;;;7394754;19;20142;-74
2023/08/15 12:21:01;;;;;;;7.35;2.90;;;30.40;99.90;;;;;;7391499;19;20134;-75
2023/08/15 12:23:27;;;;;;;3.72;2.90;;;30.30;99.90;;;;;;7394256;19;20149;-75
2023/08/15 12:25:53;;;;;;;7.45;3.90;;;30.20;99.90;;;;;;7393741;19;20566;-75
2023/08/15 12:28:19;;;;;;;5.35;3.28;;;30.20;99.90;;;;;;7393372;19;20146;-73
2023/08/15 12:30:45;;;;;;;5.03;3.80;;;30.10;99.90;;;;;;7390413;19;21324;-74
2023/08/15 12:33:11;;;;;;;5.22;3.90;;;30.00;99.90;;;;;;7393509;19;20145;-74
2023/08/15 12:35:37;;;;;;;4.50;3.40;;;30.10;99.90;;;;;;7391241;19;20843;-74
2023/08/15 12:38:03;;;;;;;4.53;2.65;;;30.00;99.90;;;;;;7389434;19;20478;-75
2023/08/15 12:40:29;;;;;;;3.60;2.60;;;29.90;99.90;;;;;;7389090;19;20134;-75
2023/08/15 12:42:55;;;;;;;4.78;3.78;;;30.00;99.90;;;;;;7390317;19;20157;-75
2023/08/15 12:45:20;;;;;;;4.55;2.88;;;30.00;99.90;;;;;;7389280;19;20142;-74
2023/08/15 12:47:46;;;;;;;5.85;3.85;;;29.80;99.90;;;;;;7391616;19;20130;-74